Portada
METAR-TAF:

METAR-TAF

Aeropuertos :

Kalaleh, Irán

latitud: 37-22-60N, longitud: 55-27-07E, altitud: 130 m

Observación

El informe se hizo hace 19 minutos, a las 20:00 UTC
Viento 2 kt del norte-noreste
Temperatura 8°C
Humedad 87%
Presión 1012 hPa

METAR: OINE 112000Z AUTO 02002KT //// // ////// 08/06 Q1012

Hora: 23:49 (20:19 UTC)


TAF: falta

Observaciones y pronósticos meteorológicos de más de 4000 aeropuertos (mensajes METAR y TAF).

Los puntos amarillos y rojos representan las estaciones disponibles.

Ponga el ratón en el punto deseado para ver el nombre de la estación.

Haga clic para ver las observaciones y los pronósticos meteorológicos.

Para cambiar el mapa : haga clic en los botones verdes con una cruz de color negro para hacer un zoom, en el botón verde con un guión para alejar o en las flechas verdes para mapas adyacentes.


METAR-TAF: